sensor_id;sensor_type;location;lat;lon;timestamp;P1;durP1;ratioP1;P2;durP2;ratioP2
73747;SDS011;62056;52.130;5.428;2023-09-08T00:00:10;7.40;;;6.70;;
73747;SDS011;62056;52.130;5.428;2023-09-08T00:02:37;7.67;;;7.17;;
73747;SDS011;62056;52.130;5.428;2023-09-08T00:05:03;8.20;;;6.35;;
73747;SDS011;62056;52.130;5.428;2023-09-08T00:07:30;7.20;;;6.50;;
73747;SDS011;62056;52.130;5.428;2023-09-08T00:09:57;10.43;;;6.68;;
73747;SDS011;62056;52.130;5.428;2023-09-08T00:12:23;7.63;;;6.43;;
73747;SDS011;62056;52.130;5.428;2023-09-08T00:14:50;8.80;;;6.40;;
73747;SDS011;62056;52.130;5.428;2023-09-08T00:17:17;7.03;;;6.40;;
73747;SDS011;62056;52.130;5.428;2023-09-08T00:19:44;7.30;;;6.60;;
73747;SDS011;62056;52.130;5.428;2023-09-08T00:22:10;7.03;;;6.32;;
73747;SDS011;62056;52.130;5.428;2023-09-08T00:24:37;7.88;;;6.85;;
73747;SDS011;62056;52.130;5.428;2023-09-08T00:27:04;7.33;;;6.73;;
73747;SDS011;62056;52.130;5.428;2023-09-08T00:29:30;8.45;;;7.15;;
73747;SDS011;62056;52.130;5.428;2023-09-08T00:31:58;7.93;;;7.05;;
73747;SDS011;62056;52.130;5.428;2023-09-08T00:34:24;7.70;;;7.10;;
73747;SDS011;62056;52.130;5.428;2023-09-08T00:36:51;8.00;;;7.20;;
73747;SDS011;62056;52.130;5.428;2023-09-08T00:39:18;9.40;;;6.77;;
73747;SDS011;62056;52.130;5.428;2023-09-08T00:41:44;7.15;;;6.65;;
73747;SDS011;62056;52.130;5.428;2023-09-08T00:44:11;10.43;;;7.90;;
73747;SDS011;62056;52.130;5.428;2023-09-08T00:46:39;8.90;;;8.10;;
73747;SDS011;62056;52.130;5.428;2023-09-08T00:49:06;9.38;;;8.13;;
73747;SDS011;62056;52.130;5.428;2023-09-08T00:51:35;9.13;;;8.07;;
73747;SDS011;62056;52.130;5.428;2023-09-08T00:54:05;7.60;;;7.00;;
73747;SDS011;62056;52.130;5.428;2023-09-08T00:56:33;7.82;;;7.20;;
73747;SDS011;62056;52.130;5.428;2023-09-08T00:59:01;8.73;;;7.68;;
73747;SDS011;62056;52.130;5.428;2023-09-08T01:01:28;7.75;;;6.95;;
73747;SDS011;62056;52.130;5.428;2023-09-08T01:03:56;9.03;;;7.53;;
73747;SDS011;62056;52.130;5.428;2023-09-08T01:06:22;7.88;;;6.32;;
73747;SDS011;62056;52.130;5.428;2023-09-08T01:08:50;7.95;;;7.35;;
73747;SDS011;62056;52.130;5.428;2023-09-08T01:11:17;9.43;;;6.82;;
73747;SDS011;62056;52.130;5.428;2023-09-08T01:13:46;8.52;;;7.63;;
73747;SDS011;62056;52.130;5.428;2023-09-08T01:16:12;10.73;;;7.60;;
73747;SDS011;62056;52.130;5.428;2023-09-08T01:18:39;8.05;;;7.25;;
73747;SDS011;62056;52.130;5.428;2023-09-08T01:26:59;8.57;;;7.45;;
73747;SDS011;62056;52.130;5.428;2023-09-08T01:29:27;8.00;;;7.40;;
73747;SDS011;62056;52.130;5.428;2023-09-08T01:31:55;8.75;;;7.75;;
73747;SDS011;62056;52.130;5.428;2023-09-08T01:34:23;8.35;;;7.65;;
73747;SDS011;62056;52.130;5.428;2023-09-08T01:36:50;8.52;;;7.82;;
73747;SDS011;62056;52.130;5.428;2023-09-08T01:39:17;8.57;;;7.88;;
73747;SDS011;62056;52.130;5.428;2023-09-08T01:41:44;9.97;;;8.40;;
73747;SDS011;62056;52.130;5.428;2023-09-08T01:44:11;8.05;;;7.45;;
73747;SDS011;62056;52.130;5.428;2023-09-08T01:46:38;8.93;;;8.07;;
73747;SDS011;62056;52.130;5.428;2023-09-08T01:49:07;8.35;;;7.55;;
73747;SDS011;62056;52.130;5.428;2023-09-08T01:51:34;8.70;;;7.78;;
73747;SDS011;62056;52.130;5.428;2023-09-08T01:54:01;9.00;;;8.20;;
73747;SDS011;62056;52.130;5.428;2023-09-08T01:56:28;9.23;;;8.15;;
73747;SDS011;62056;52.130;5.428;2023-09-08T01:58:54;8.63;;;7.85;;
73747;SDS011;62056;52.130;5.428;2023-09-08T02:01:21;8.75;;;7.93;;
73747;SDS011;62056;52.130;5.428;2023-09-08T02:03:48;8.77;;;8.00;;
73747;SDS011;62056;52.130;5.428;2023-09-08T02:06:14;8.97;;;7.93;;
73747;SDS011;62056;52.130;5.428;2023-09-08T02:08:41;8.88;;;7.63;;
73747;SDS011;62056;52.130;5.428;2023-09-08T02:11:08;9.60;;;8.48;;
73747;SDS011;62056;52.130;5.428;2023-09-08T02:13:36;10.50;;;9.40;;
73747;SDS011;62056;52.130;5.428;2023-09-08T02:16:03;9.23;;;8.32;;
73747;SDS011;62056;52.130;5.428;2023-09-08T02:18:30;9.30;;;8.50;;
73747;SDS011;62056;52.130;5.428;2023-09-08T02:20:57;9.00;;;8.10;;
73747;SDS011;62056;52.130;5.428;2023-09-08T02:23:24;14.35;;;8.77;;
73747;SDS011;62056;52.130;5.428;2023-09-08T02:25:50;10.07;;;8.40;;
73747;SDS011;62056;52.130;5.428;2023-09-08T02:28:17;10.15;;;8.82;;
73747;SDS011;62056;52.130;5.428;2023-09-08T02:30:44;9.80;;;8.90;;
73747;SDS011;62056;52.130;5.428;2023-09-08T02:33:10;9.65;;;8.57;;
73747;SDS011;62056;52.130;5.428;2023-09-08T02:35:37;9.73;;;8.70;;
73747;SDS011;62056;52.130;5.428;2023-09-08T02:38:07;9.13;;;7.85;;
73747;SDS011;62056;52.130;5.428;2023-09-08T02:40:33;9.75;;;8.75;;
73747;SDS011;62056;52.130;5.428;2023-09-08T02:43:01;8.77;;;7.97;;
73747;SDS011;62056;52.130;5.428;2023-09-08T02:45:28;8.63;;;7.93;;
73747;SDS011;62056;52.130;5.428;2023-09-08T02:47:56;10.80;;;8.35;;
73747;SDS011;62056;52.130;5.428;2023-09-08T02:50:23;10.30;;;9.30;;
73747;SDS011;62056;52.130;5.428;2023-09-08T02:52:50;9.30;;;8.40;;
73747;SDS011;62056;52.130;5.428;2023-09-08T02:55:16;9.37;;;8.57;;
73747;SDS011;62056;52.130;5.428;2023-09-08T02:57:43;10.13;;;9.13;;
73747;SDS011;62056;52.130;5.428;2023-09-08T03:00:10;9.95;;;8.95;;
73747;SDS011;62056;52.130;5.428;2023-09-08T03:02:37;10.40;;;8.90;;
73747;SDS011;62056;52.130;5.428;2023-09-08T03:05:04;9.50;;;8.52;;
73747;SDS011;62056;52.130;5.428;2023-09-08T03:07:32;10.30;;;9.33;;
73747;SDS011;62056;52.130;5.428;2023-09-08T03:10:00;11.82;;;9.32;;
73747;SDS011;62056;52.130;5.428;2023-09-08T03:12:26;11.32;;;10.13;;
73747;SDS011;62056;52.130;5.428;2023-09-08T03:14:54;10.38;;;8.57;;
73747;SDS011;62056;52.130;5.428;2023-09-08T03:17:21;10.65;;;9.55;;
73747;SDS011;62056;52.130;5.428;2023-09-08T03:19:47;9.43;;;8.60;;
73747;SDS011;62056;52.130;5.428;2023-09-08T03:22:14;10.65;;;8.60;;
73747;SDS011;62056;52.130;5.428;2023-09-08T03:24:41;8.80;;;7.97;;
73747;SDS011;62056;52.130;5.428;2023-09-08T03:27:08;9.93;;;8.88;;
73747;SDS011;62056;52.130;5.428;2023-09-08T03:29:34;11.70;;;9.38;;
73747;SDS011;62056;52.130;5.428;2023-09-08T03:32:01;9.40;;;8.60;;
73747;SDS011;62056;52.130;5.428;2023-09-08T03:34:29;10.02;;;9.02;;
73747;SDS011;62056;52.130;5.428;2023-09-08T03:36:56;8.77;;;8.00;;
73747;SDS011;62056;52.130;5.428;2023-09-08T03:39:22;16.63;;;9.40;;
73747;SDS011;62056;52.130;5.428;2023-09-08T03:41:49;8.40;;;7.60;;
73747;SDS011;62056;52.130;5.428;2023-09-08T03:44:16;9.73;;;8.73;;
73747;SDS011;62056;52.130;5.428;2023-09-08T03:46:42;10.50;;;9.52;;
73747;SDS011;62056;52.130;5.428;2023-09-08T03:49:09;10.13;;;9.20;;
73747;SDS011;62056;52.130;5.428;2023-09-08T03:51:36;11.05;;;9.98;;
73747;SDS011;62056;52.130;5.428;2023-09-08T03:54:02;12.60;;;10.05;;
73747;SDS011;62056;52.130;5.428;2023-09-08T03:56:30;10.77;;;9.50;;
73747;SDS011;62056;52.130;5.428;2023-09-08T03:58:57;12.30;;;9.70;;
73747;SDS011;62056;52.130;5.428;2023-09-08T04:01:23;11.45;;;10.25;;
73747;SDS011;62056;52.130;5.428;2023-09-08T04:03:50;11.65;;;9.93;;
73747;SDS011;62056;52.130;5.428;2023-09-08T04:06:17;10.38;;;9.30;;
73747;SDS011;62056;52.130;5.428;2023-09-08T04:08:43;10.90;;;9.80;;
73747;SDS011;62056;52.130;5.428;2023-09-08T04:11:11;12.35;;;10.57;;
73747;SDS011;62056;52.130;5.428;2023-09-08T04:13:37;14.15;;;10.60;;
73747;SDS011;62056;52.130;5.428;2023-09-08T04:16:04;10.48;;;9.57;;
73747;SDS011;62056;52.130;5.428;2023-09-08T04:18:31;12.15;;;11.00;;
73747;SDS011;62056;52.130;5.428;2023-09-08T04:20:58;12.67;;;10.47;;
73747;SDS011;62056;52.130;5.428;2023-09-08T04:23:25;11.35;;;10.25;;
73747;SDS011;62056;52.130;5.428;2023-09-08T04:25:51;12.65;;;10.95;;
73747;SDS011;62056;52.130;5.428;2023-09-08T04:28:18;14.55;;;11.82;;
73747;SDS011;62056;52.130;5.428;2023-09-08T04:30:45;16.90;;;11.60;;
73747;SDS011;62056;52.130;5.428;2023-09-08T04:33:11;15.10;;;10.83;;
73747;SDS011;62056;52.130;5.428;2023-09-08T04:35:39;11.80;;;10.55;;
73747;SDS011;62056;52.130;5.428;2023-09-08T04:38:05;11.85;;;10.65;;
73747;SDS011;62056;52.130;5.428;2023-09-08T04:40:32;11.23;;;10.10;;
73747;SDS011;62056;52.130;5.428;2023-09-08T04:43:01;12.25;;;10.90;;
73747;SDS011;62056;52.130;5.428;2023-09-08T04:45:27;14.07;;;10.07;;
73747;SDS011;62056;52.130;5.428;2023-09-08T04:47:54;11.90;;;10.70;;
73747;SDS011;62056;52.130;5.428;2023-09-08T04:50:21;12.65;;;11.40;;
73747;SDS011;62056;52.130;5.428;2023-09-08T04:52:48;11.73;;;10.52;;
73747;SDS011;62056;52.130;5.428;2023-09-08T04:55:15;13.77;;;10.93;;
73747;SDS011;62056;52.130;5.428;2023-09-08T04:57:43;11.50;;;10.40;;
73747;SDS011;62056;52.130;5.428;2023-09-08T05:00:10;11.90;;;10.68;;
73747;SDS011;62056;52.130;5.428;2023-09-08T05:02:38;15.82;;;11.20;;
73747;SDS011;62056;52.130;5.428;2023-09-08T05:05:05;16.08;;;11.90;;
73747;SDS011;62056;52.130;5.428;2023-09-08T05:07:32;13.73;;;10.63;;
73747;SDS011;62056;52.130;5.428;2023-09-08T05:09:58;20.40;;;10.53;;
73747;SDS011;62056;52.130;5.428;2023-09-08T05:12:25;12.32;;;11.02;;
73747;SDS011;62056;52.130;5.428;2023-09-08T05:14:52;15.95;;;10.50;;
73747;SDS011;62056;52.130;5.428;2023-09-08T05:17:23;11.30;;;10.18;;
73747;SDS011;62056;52.130;5.428;2023-09-08T05:19:50;11.77;;;10.68;;
73747;SDS011;62056;52.130;5.428;2023-09-08T05:22:17;13.87;;;10.67;;
73747;SDS011;62056;52.130;5.428;2023-09-08T05:24:44;11.63;;;10.27;;
73747;SDS011;62056;52.130;5.428;2023-09-08T05:27:11;12.40;;;9.88;;
73747;SDS011;62056;52.130;5.428;2023-09-08T05:29:38;14.40;;;10.57;;
73747;SDS011;62056;52.130;5.428;2023-09-08T05:32:05;18.15;;;10.88;;
73747;SDS011;62056;52.130;5.428;2023-09-08T05:34:31;15.73;;;11.43;;
73747;SDS011;62056;52.130;5.428;2023-09-08T05:36:58;11.13;;;10.02;;
73747;SDS011;62056;52.130;5.428;2023-09-08T05:39:25;15.07;;;11.38;;
73747;SDS011;62056;52.130;5.428;2023-09-08T05:41:51;10.90;;;9.90;;
73747;SDS011;62056;52.130;5.428;2023-09-08T05:44:18;12.13;;;10.73;;
73747;SDS011;62056;52.130;5.428;2023-09-08T05:46:45;10.87;;;9.73;;
73747;SDS011;62056;52.130;5.428;2023-09-08T05:49:12;11.68;;;10.48;;
73747;SDS011;62056;52.130;5.428;2023-09-08T05:51:40;11.80;;;9.57;;
73747;SDS011;62056;52.130;5.428;2023-09-08T05:54:07;12.32;;;10.38;;
73747;SDS011;62056;52.130;5.428;2023-09-08T05:56:34;13.43;;;10.88;;
73747;SDS011;62056;52.130;5.428;2023-09-08T05:59:00;11.17;;;10.07;;
73747;SDS011;62056;52.130;5.428;2023-09-08T06:01:28;12.15;;;10.30;;
73747;SDS011;62056;52.130;5.428;2023-09-08T06:03:55;12.18;;;10.75;;
73747;SDS011;62056;52.130;5.428;2023-09-08T06:06:22;25.45;;;15.85;;
73747;SDS011;62056;52.130;5.428;2023-09-08T06:08:49;12.93;;;11.18;;
73747;SDS011;62056;52.130;5.428;2023-09-08T06:11:16;12.10;;;10.23;;
73747;SDS011;62056;52.130;5.428;2023-09-08T06:13:43;12.52;;;10.32;;
73747;SDS011;62056;52.130;5.428;2023-09-08T06:16:10;13.45;;;11.45;;
73747;SDS011;62056;52.130;5.428;2023-09-08T06:18:37;18.88;;;10.75;;
73747;SDS011;62056;52.130;5.428;2023-09-08T06:21:07;14.65;;;10.27;;
73747;SDS011;62056;52.130;5.428;2023-09-08T06:23:34;12.60;;;10.80;;
73747;SDS011;62056;52.130;5.428;2023-09-08T06:26:03;11.63;;;9.50;;
73747;SDS011;62056;52.130;5.428;2023-09-08T06:28:30;11.65;;;10.48;;
73747;SDS011;62056;52.130;5.428;2023-09-08T06:30:57;11.60;;;9.88;;
73747;SDS011;62056;52.130;5.428;2023-09-08T06:33:23;12.43;;;10.60;;
73747;SDS011;62056;52.130;5.428;2023-09-08T06:35:51;15.80;;;10.67;;
73747;SDS011;62056;52.130;5.428;2023-09-08T06:38:20;13.75;;;10.02;;
73747;SDS011;62056;52.130;5.428;2023-09-08T06:40:47;12.80;;;9.35;;
73747;SDS011;62056;52.130;5.428;2023-09-08T06:43:14;11.80;;;9.95;;
73747;SDS011;62056;52.130;5.428;2023-09-08T06:45:41;14.73;;;11.07;;
73747;SDS011;62056;52.130;5.428;2023-09-08T06:48:08;11.80;;;10.13;;
73747;SDS011;62056;52.130;5.428;2023-09-08T06:50:35;14.90;;;10.93;;
73747;SDS011;62056;52.130;5.428;2023-09-08T06:53:02;11.13;;;9.93;;
73747;SDS011;62056;52.130;5.428;2023-09-08T06:55:29;13.18;;;10.43;;
73747;SDS011;62056;52.130;5.428;2023-09-08T06:57:56;13.23;;;10.73;;
73747;SDS011;62056;52.130;5.428;2023-09-08T07:00:23;12.07;;;9.87;;
73747;SDS011;62056;52.130;5.428;2023-09-08T07:02:50;13.40;;;10.35;;
73747;SDS011;62056;52.130;5.428;2023-09-08T07:05:17;13.07;;;10.32;;
73747;SDS011;62056;52.130;5.428;2023-09-08T07:07:45;11.57;;;10.02;;
73747;SDS011;62056;52.130;5.428;2023-09-08T07:10:14;13.18;;;10.07;;
73747;SDS011;62056;52.130;5.428;2023-09-08T07:12:41;11.10;;;10.00;;
73747;SDS011;62056;52.130;5.428;2023-09-08T07:15:08;9.73;;;8.88;;
73747;SDS011;62056;52.130;5.428;2023-09-08T07:17:35;10.32;;;8.77;;
73747;SDS011;62056;52.130;5.428;2023-09-08T07:20:02;16.58;;;9.50;;
73747;SDS011;62056;52.130;5.428;2023-09-08T07:22:29;11.07;;;9.95;;
73747;SDS011;62056;52.130;5.428;2023-09-08T07:24:56;13.57;;;10.13;;
73747;SDS011;62056;52.130;5.428;2023-09-08T07:27:23;10.40;;;9.30;;
73747;SDS011;62056;52.130;5.428;2023-09-08T07:29:49;11.27;;;9.30;;
73747;SDS011;62056;52.130;5.428;2023-09-08T07:32:18;14.05;;;9.85;;
73747;SDS011;62056;52.130;5.428;2023-09-08T07:34:45;10.65;;;9.40;;
73747;SDS011;62056;52.130;5.428;2023-09-08T07:37:13;10.87;;;9.87;;
73747;SDS011;62056;52.130;5.428;2023-09-08T07:39:40;8.77;;;8.00;;
73747;SDS011;62056;52.130;5.428;2023-09-08T07:42:07;12.07;;;8.85;;
73747;SDS011;62056;52.130;5.428;2023-09-08T07:44:38;10.20;;;8.25;;
73747;SDS011;62056;52.130;5.428;2023-09-08T07:47:06;10.27;;;9.20;;
73747;SDS011;62056;52.130;5.428;2023-09-08T07:49:33;12.03;;;8.83;;
73747;SDS011;62056;52.130;5.428;2023-09-08T07:52:01;13.25;;;9.20;;
73747;SDS011;62056;52.130;5.428;2023-09-08T07:54:29;9.85;;;8.60;;
73747;SDS011;62056;52.130;5.428;2023-09-08T07:56:57;11.35;;;10.00;;
73747;SDS011;62056;52.130;5.428;2023-09-08T07:59:24;10.45;;;9.57;;
73747;SDS011;62056;52.130;5.428;2023-09-08T08:01:50;9.03;;;8.20;;
73747;SDS011;62056;52.130;5.428;2023-09-08T08:04:19;9.93;;;8.93;;
73747;SDS011;62056;52.130;5.428;2023-09-08T08:06:50;10.90;;;9.40;;
73747;SDS011;62056;52.130;5.428;2023-09-08T08:09:17;9.88;;;9.02;;
73747;SDS011;62056;52.130;5.428;2023-09-08T08:11:44;10.40;;;9.50;;
73747;SDS011;62056;52.130;5.428;2023-09-08T08:14:12;9.67;;;8.63;;
73747;SDS011;62056;52.130;5.428;2023-09-08T08:16:42;9.43;;;8.60;;
73747;SDS011;62056;52.130;5.428;2023-09-08T08:19:09;10.20;;;9.40;;
73747;SDS011;62056;52.130;5.428;2023-09-08T08:21:36;9.88;;;9.10;;
73747;SDS011;62056;52.130;5.428;2023-09-08T08:24:04;7.90;;;7.30;;
73747;SDS011;62056;52.130;5.428;2023-09-08T08:26:31;8.90;;;8.20;;
73747;SDS011;62056;52.130;5.428;2023-09-08T08:28:59;9.63;;;8.77;;
73747;SDS011;62056;52.130;5.428;2023-09-08T08:31:26;10.30;;;9.27;;
73747;SDS011;62056;52.130;5.428;2023-09-08T08:33:53;9.95;;;8.95;;
73747;SDS011;62056;52.130;5.428;2023-09-08T08:36:26;10.02;;;8.95;;
73747;SDS011;62056;52.130;5.428;2023-09-08T08:38:53;12.47;;;8.87;;
73747;SDS011;62056;52.130;5.428;2023-09-08T08:41:20;14.63;;;12.10;;
73747;SDS011;62056;52.130;5.428;2023-09-08T08:43:49;11.80;;;10.30;;
73747;SDS011;62056;52.130;5.428;2023-09-08T08:46:18;10.95;;;9.50;;
73747;SDS011;62056;52.130;5.428;2023-09-08T08:48:48;8.68;;;7.45;;
73747;SDS011;62056;52.130;5.428;2023-09-08T08:51:19;8.00;;;7.30;;
73747;SDS011;62056;52.130;5.428;2023-09-08T08:53:50;9.65;;;8.80;;
73747;SDS011;62056;52.130;5.428;2023-09-08T08:56:18;21.15;;;18.90;;
73747;SDS011;62056;52.130;5.428;2023-09-08T08:58:46;10.65;;;9.85;;
73747;SDS011;62056;52.130;5.428;2023-09-08T09:01:18;10.38;;;9.48;;
73747;SDS011;62056;52.130;5.428;2023-09-08T09:03:51;9.50;;;8.27;;
73747;SDS011;62056;52.130;5.428;2023-09-08T09:06:19;8.25;;;7.35;;
73747;SDS011;62056;52.130;5.428;2023-09-08T09:08:49;8.38;;;7.68;;
73747;SDS011;62056;52.130;5.428;2023-09-08T09:11:21;7.75;;;7.05;;
73747;SDS011;62056;52.130;5.428;2023-09-08T09:13:48;8.82;;;7.63;;
73747;SDS011;62056;52.130;5.428;2023-09-08T09:16:20;8.77;;;7.80;;
73747;SDS011;62056;52.130;5.428;2023-09-08T09:18:58;13.75;;;12.57;;
73747;SDS011;62056;52.130;5.428;2023-09-08T09:21:41;9.48;;;7.82;;
73747;SDS011;62056;52.130;5.428;2023-09-08T09:24:17;8.10;;;7.40;;
73747;SDS011;62056;52.130;5.428;2023-09-08T09:26:55;9.25;;;7.97;;
73747;SDS011;62056;52.130;5.428;2023-09-08T09:29:26;9.47;;;8.50;;
73747;SDS011;62056;52.130;5.428;2023-09-08T09:34:23;8.30;;;7.68;;
73747;SDS011;62056;52.130;5.428;2023-09-08T09:36:51;8.23;;;7.40;;
73747;SDS011;62056;52.130;5.428;2023-09-08T09:39:24;7.32;;;6.57;;
73747;SDS011;62056;52.130;5.428;2023-09-08T09:42:19;14.67;;;9.00;;
73747;SDS011;62056;52.130;5.428;2023-09-08T09:44:48;12.35;;;6.88;;
73747;SDS011;62056;52.130;5.428;2023-09-08T09:47:21;7.28;;;6.57;;
73747;SDS011;62056;52.130;5.428;2023-09-08T09:49:51;7.75;;;6.82;;
73747;SDS011;62056;52.130;5.428;2023-09-08T09:52:23;9.15;;;6.72;;
73747;SDS011;62056;52.130;5.428;2023-09-08T09:54:53;8.53;;;6.87;;
73747;SDS011;62056;52.130;5.428;2023-09-08T09:57:22;11.05;;;5.97;;
73747;SDS011;62056;52.130;5.428;2023-09-08T09:59:53;7.43;;;6.82;;
73747;SDS011;62056;52.130;5.428;2023-09-08T10:02:23;6.18;;;5.57;;
73747;SDS011;62056;52.130;5.428;2023-09-08T10:04:53;14.30;;;8.23;;
73747;SDS011;62056;52.130;5.428;2023-09-08T10:07:22;7.23;;;6.53;;
73747;SDS011;62056;52.130;5.428;2023-09-08T10:09:56;7.88;;;7.18;;
73747;SDS011;62056;52.130;5.428;2023-09-08T10:12:27;6.88;;;6.38;;
73747;SDS011;62056;52.130;5.428;2023-09-08T10:14:58;6.82;;;6.20;;
73747;SDS011;62056;52.130;5.428;2023-09-08T10:17:25;6.80;;;6.15;;
73747;SDS011;62056;52.130;5.428;2023-09-08T10:19:59;14.17;;;7.17;;
73747;SDS011;62056;52.130;5.428;2023-09-08T10:22:38;7.05;;;6.35;;
73747;SDS011;62056;52.130;5.428;2023-09-08T10:25:08;7.18;;;6.32;;
73747;SDS011;62056;52.130;5.428;2023-09-08T10:27:36;6.90;;;6.05;;
73747;SDS011;62056;52.130;5.428;2023-09-08T10:30:07;10.65;;;7.05;;
73747;SDS011;62056;52.130;5.428;2023-09-08T10:32:35;5.30;;;4.80;;
73747;SDS011;62056;52.130;5.428;2023-09-08T10:35:03;9.68;;;6.30;;
73747;SDS011;62056;52.130;5.428;2023-09-08T10:37:43;7.45;;;6.18;;
73747;SDS011;62056;52.130;5.428;2023-09-08T10:40:20;7.30;;;6.20;;
73747;SDS011;62056;52.130;5.428;2023-09-08T10:43:05;6.40;;;5.97;;
73747;SDS011;62056;52.130;5.428;2023-09-08T10:45:33;8.13;;;6.10;;
73747;SDS011;62056;52.130;5.428;2023-09-08T10:48:03;7.05;;;6.35;;
73747;SDS011;62056;52.130;5.428;2023-09-08T10:50:33;7.00;;;6.40;;
73747;SDS011;62056;52.130;5.428;2023-09-08T10:53:05;6.05;;;5.63;;
73747;SDS011;62056;52.130;5.428;2023-09-08T10:55:48;7.53;;;6.88;;
73747;SDS011;62056;52.130;5.428;2023-09-08T10:58:39;7.70;;;7.00;;
73747;SDS011;62056;52.130;5.428;2023-09-08T11:01:23;8.93;;;6.25;;
73747;SDS011;62056;52.130;5.428;2023-09-08T11:03:53;6.32;;;5.82;;
73747;SDS011;62056;52.130;5.428;2023-09-08T11:06:21;6.45;;;5.95;;
73747;SDS011;62056;52.130;5.428;2023-09-08T11:08:57;6.63;;;6.15;;
73747;SDS011;62056;52.130;5.428;2023-09-08T11:11:35;10.27;;;6.70;;
73747;SDS011;62056;52.130;5.428;2023-09-08T11:14:03;6.85;;;6.18;;
73747;SDS011;62056;52.130;5.428;2023-09-08T11:16:33;9.48;;;7.05;;
73747;SDS011;62056;52.130;5.428;2023-09-08T11:19:02;7.45;;;6.63;;
73747;SDS011;62056;52.130;5.428;2023-09-08T11:21:31;6.65;;;6.05;;
73747;SDS011;62056;52.130;5.428;2023-09-08T11:24:03;7.00;;;6.30;;
73747;SDS011;62056;52.130;5.428;2023-09-08T11:26:34;9.68;;;6.22;;
73747;SDS011;62056;52.130;5.428;2023-09-08T11:29:02;6.50;;;5.90;;
73747;SDS011;62056;52.130;5.428;2023-09-08T11:31:29;6.18;;;5.78;;
73747;SDS011;62056;52.130;5.428;2023-09-08T11:34:03;6.72;;;5.85;;
73747;SDS011;62056;52.130;5.428;2023-09-08T11:36:31;6.43;;;5.60;;
73747;SDS011;62056;52.130;5.428;2023-09-08T11:38:58;6.97;;;5.93;;
73747;SDS011;62056;52.130;5.428;2023-09-08T11:41:27;7.38;;;6.22;;
73747;SDS011;62056;52.130;5.428;2023-09-08T11:43:55;12.93;;;6.35;;
73747;SDS011;62056;52.130;5.428;2023-09-08T11:46:23;6.57;;;5.93;;
73747;SDS011;62056;52.130;5.428;2023-09-08T11:48:52;6.30;;;5.90;;
73747;SDS011;62056;52.130;5.428;2023-09-08T11:51:22;8.45;;;5.82;;
73747;SDS011;62056;52.130;5.428;2023-09-08T11:53:50;10.55;;;5.95;;
73747;SDS011;62056;52.130;5.428;2023-09-08T11:56:20;5.78;;;5.07;;
73747;SDS011;62056;52.130;5.428;2023-09-08T11:58:49;6.55;;;5.90;;
73747;SDS011;62056;52.130;5.428;2023-09-08T12:01:20;6.90;;;5.20;;
73747;SDS011;62056;52.130;5.428;2023-09-08T12:03:54;8.07;;;5.93;;
73747;SDS011;62056;52.130;5.428;2023-09-08T12:06:27;8.20;;;5.68;;
73747;SDS011;62056;52.130;5.428;2023-09-08T12:08:59;11.70;;;6.00;;
73747;SDS011;62056;52.130;5.428;2023-09-08T12:11:33;11.30;;;5.57;;
73747;SDS011;62056;52.130;5.428;2023-09-08T12:14:08;6.03;;;5.50;;
73747;SDS011;62056;52.130;5.428;2023-09-08T12:16:54;7.07;;;5.70;;
73747;SDS011;62056;52.130;5.428;2023-09-08T12:19:46;6.50;;;5.50;;
73747;SDS011;62056;52.130;5.428;2023-09-08T12:22:24;6.07;;;5.22;;
73747;SDS011;62056;52.130;5.428;2023-09-08T12:27:23;5.97;;;5.57;;
73747;SDS011;62056;52.130;5.428;2023-09-08T12:32:24;4.63;;;4.28;;
73747;SDS011;62056;52.130;5.428;2023-09-08T12:34:52;11.07;;;5.45;;
73747;SDS011;62056;52.130;5.428;2023-09-08T12:37:23;5.75;;;5.07;;
73747;SDS011;62056;52.130;5.428;2023-09-08T12:39:51;8.00;;;5.57;;
73747;SDS011;62056;52.130;5.428;2023-09-08T12:42:18;9.02;;;6.20;;
73747;SDS011;62056;52.130;5.428;2023-09-08T12:44:47;7.43;;;5.47;;
73747;SDS011;62056;52.130;5.428;2023-09-08T12:47:15;5.65;;;5.25;;
73747;SDS011;62056;52.130;5.428;2023-09-08T12:49:43;7.13;;;5.40;;
73747;SDS011;62056;52.130;5.428;2023-09-08T12:52:10;7.17;;;5.20;;
73747;SDS011;62056;52.130;5.428;2023-09-08T12:54:39;7.28;;;5.40;;
73747;SDS011;62056;52.130;5.428;2023-09-08T12:57:09;8.38;;;5.47;;
73747;SDS011;62056;52.130;5.428;2023-09-08T12:59:46;5.85;;;5.45;;
73747;SDS011;62056;52.130;5.428;2023-09-08T13:02:16;11.18;;;7.28;;
73747;SDS011;62056;52.130;5.428;2023-09-08T13:04:47;5.43;;;5.00;;
73747;SDS011;62056;52.130;5.428;2023-09-08T13:07:15;5.03;;;4.50;;
73747;SDS011;62056;52.130;5.428;2023-09-08T13:09:43;9.13;;;4.78;;
73747;SDS011;62056;52.130;5.428;2023-09-08T13:12:10;5.47;;;4.97;;
73747;SDS011;62056;52.130;5.428;2023-09-08T13:14:39;6.93;;;5.50;;
73747;SDS011;62056;52.130;5.428;2023-09-08T13:17:06;7.13;;;5.90;;
73747;SDS011;62056;52.130;5.428;2023-09-08T13:19:34;6.00;;;5.50;;
73747;SDS011;62056;52.130;5.428;2023-09-08T13:22:02;7.60;;;4.60;;
73747;SDS011;62056;52.130;5.428;2023-09-08T13:24:29;6.38;;;5.88;;
73747;SDS011;62056;52.130;5.428;2023-09-08T13:26:55;6.45;;;5.25;;
73747;SDS011;62056;52.130;5.428;2023-09-08T13:29:25;5.60;;;4.93;;
73747;SDS011;62056;52.130;5.428;2023-09-08T13:31:54;9.30;;;5.85;;
73747;SDS011;62056;52.130;5.428;2023-09-08T13:34:21;11.25;;;6.32;;
73747;SDS011;62056;52.130;5.428;2023-09-08T13:36:53;7.38;;;5.65;;
73747;SDS011;62056;52.130;5.428;2023-09-08T13:39:20;6.43;;;5.85;;
73747;SDS011;62056;52.130;5.428;2023-09-08T13:41:51;6.43;;;6.03;;
73747;SDS011;62056;52.130;5.428;2023-09-08T13:44:19;7.45;;;6.13;;
73747;SDS011;62056;52.130;5.428;2023-09-08T13:46:51;8.35;;;6.00;;
73747;SDS011;62056;52.130;5.428;2023-09-08T13:49:22;5.60;;;5.20;;
73747;SDS011;62056;52.130;5.428;2023-09-08T13:51:52;9.88;;;5.93;;
73747;SDS011;62056;52.130;5.428;2023-09-08T13:54:23;6.37;;;5.67;;
73747;SDS011;62056;52.130;5.428;2023-09-08T13:57:01;5.95;;;5.55;;
73747;SDS011;62056;52.130;5.428;2023-09-08T13:59:34;5.82;;;5.38;;
73747;SDS011;62056;52.130;5.428;2023-09-08T14:02:17;6.80;;;5.68;;
73747;SDS011;62056;52.130;5.428;2023-09-08T14:04:48;10.25;;;4.43;;
73747;SDS011;62056;52.130;5.428;2023-09-08T14:07:30;8.27;;;4.80;;
73747;SDS011;62056;52.130;5.428;2023-09-08T14:10:00;10.07;;;6.53;;
73747;SDS011;62056;52.130;5.428;2023-09-08T14:12:41;6.70;;;6.00;;
73747;SDS011;62056;52.130;5.428;2023-09-08T14:15:26;6.45;;;5.78;;
73747;SDS011;62056;52.130;5.428;2023-09-08T14:18:01;6.63;;;6.13;;
73747;SDS011;62056;52.130;5.428;2023-09-08T14:20:55;7.43;;;5.90;;
73747;SDS011;62056;52.130;5.428;2023-09-08T14:23:30;6.18;;;5.30;;
73747;SDS011;62056;52.130;5.428;2023-09-08T14:26:41;6.47;;;5.88;;
73747;SDS011;62056;52.130;5.428;2023-09-08T14:29:09;9.07;;;5.78;;
73747;SDS011;62056;52.130;5.428;2023-09-08T14:31:37;7.80;;;5.10;;
73747;SDS011;62056;52.130;5.428;2023-09-08T14:34:07;8.83;;;4.60;;
73747;SDS011;62056;52.130;5.428;2023-09-08T14:36:50;5.95;;;4.97;;
73747;SDS011;62056;52.130;5.428;2023-09-08T14:39:16;5.40;;;4.93;;
73747;SDS011;62056;52.130;5.428;2023-09-08T14:41:52;5.47;;;4.93;;
73747;SDS011;62056;52.130;5.428;2023-09-08T14:48:11;6.13;;;5.63;;
73747;SDS011;62056;52.130;5.428;2023-09-08T14:50:38;10.57;;;6.38;;
73747;SDS011;62056;52.130;5.428;2023-09-08T14:53:06;9.93;;;8.75;;
73747;SDS011;62056;52.130;5.428;2023-09-08T14:55:33;5.55;;;5.15;;
73747;SDS011;62056;52.130;5.428;2023-09-08T14:58:00;8.57;;;5.13;;
73747;SDS011;62056;52.130;5.428;2023-09-08T15:00:30;5.47;;;5.07;;
73747;SDS011;62056;52.130;5.428;2023-09-08T15:05:37;7.43;;;5.38;;
73747;SDS011;62056;52.130;5.428;2023-09-08T15:08:27;8.05;;;5.32;;